Latest Weather Observations for Nowra

IDN60801

Issued at 5:02 am EST Monday 20 April 2015 (issued every 30 minutes, with the page automatically refreshed every 10 minutes)

About weather observations | Map of weather stations | Latest weather observations for NSW | Other Formats
Station Details ID: 068072 Name: NOWRA RAN AIR STATION AWS Lat: -34.95 Lon: 150.54 Height: 109.0 m
Data from the previous 72 hours. | See also: Recent months at Nowra
Date/Time
EST
Temp
°C
App
Temp
°C
Dew
Point
Rel
Hum
%
Delta-T
°C
Wind Press
QNH
hPa
Press
MSL
hPa
Rain
since 9 am
mm
Dir
 
Spd
km/h
Gust
km/h
Spd
kts
Gust
kts
20/04:49am 10.9 4.6 9.0 88 0.9 SSW 32 50 17 27 1025.5 - 3.8
20/04:30am 11.0 4.3 8.2 83 1.4 SSW 33 50 18 27 1025.5 - 3.6
20/04:05am 10.6 4.1 8.2 85 1.2 SSW 32 50 17 27 1025.7 - 3.6
20/04:00am 10.6 3.9 8.2 85 1.2 SSW 33 50 18 27 1025.8 - 3.6
20/03:59am 10.5 4.0 8.1 85 1.2 SSW 32 50 17 27 1025.8 - 3.6
20/03:30am 11.0 5.1 7.3 78 1.8 SW 28 43 15 23 1025.4 - 3.4
20/03:00am 10.9 4.5 6.8 76 1.9 SSW 30 44 16 24 1025.0 1024.9 3.4
20/02:30am 11.0 4.1 7.1 77 1.9 SSW 33 56 18 30 1026.1 - 3.4
20/02:23am 11.0 4.0 6.7 75 2.0 SSW 33 56 18 30 1026.3 - 3.4
20/02:00am 11.0 4.6 6.9 76 2.0 SSW 30 41 16 22 1026.2 - 3.4
20/01:30am 10.6 5.5 7.7 82 1.4 SW 24 35 13 19 1026.5 - 3.4
20/01:00am 10.6 5.0 7.3 80 1.6 SSW 26 41 14 22 1026.7 - 3.4
20/12:30am 10.6 4.6 6.9 78 1.8 SSW 28 39 15 21 1026.8 - 3.4
20/12:22am 10.7 4.8 7.4 80 1.6 SSW 28 46 15 25 1026.9 - 3.4
20/12:00am 10.7 6.3 7.6 81 1.5 SSW 20 20 11 11 1027.2 1027.1 3.2
 
Date/Time
EST
Temp
°C
App
Temp
°C
Dew
Point
Rel
Hum
%
Delta-T
°C
Wind Press
QNH
hPa
Press
MSL
hPa
Rain
since 9 am
mm
Dir
 
Spd
km/h
Gust
km/h
Spd
kts
Gust
kts
19/11:30pm 10.7 7.0 7.9 83 1.4 SW 17 22 9 12 1027.1 - 3.2
19/11:00pm 10.8 6.9 8.6 86 1.1 SSW 19 30 10 16 1026.7 - 3.0
19/10:30pm 11.0 8.6 8.6 85 1.2 SSW 11 17 6 9 1027.2 - 2.8
19/10:00pm 11.2 8.1 8.9 86 1.1 SSW 15 20 8 11 1026.8 - 2.6
19/09:30pm 11.2 7.8 9.3 88 1.0 SSW 17 22 9 12 1026.8 - 2.6
19/09:00pm 11.7 7.8 9.3 85 1.2 SSW 20 26 11 14 1026.6 1026.5 2.4
19/08:30pm 12.1 8.8 8.2 77 1.9 SSW 15 20 8 11 1025.9 - 1.8
19/08:00pm 11.2 9.4 9.6 90 0.8 W 9 13 5 7 1025.6 - 1.8
19/07:30pm 11.0 9.3 9.8 92 0.6 NNW 9 11 5 6 1025.5 - 1.8
19/07:00pm 11.3 9.4 9.0 86 1.2 W 9 11 5 6 1025.1 - 1.8
19/06:30pm 10.9 8.6 9.0 88 0.9 WSW 11 15 6 8 1024.7 - 1.8
19/06:00pm 10.9 7.8 8.7 86 1.1 SSW 15 20 8 11 1024.5 1024.3 1.6
19/05:30pm 11.2 7.4 9.1 87 1.1 SSW 19 30 10 16 1024.2 - 1.2
19/05:00pm 11.1 7.2 8.7 85 1.2 SW 19 26 10 14 1023.8 - 1.0
19/04:30pm 11.3 7.6 10.0 92 0.7 SW 20 28 11 15 1023.3 - 1.0
19/04:00pm 11.7 8.6 10.3 91 0.7 SSW 17 30 9 16 1022.8 - 0.4
19/03:30pm 12.0 7.8 9.9 87 1.1 S 22 33 12 18 1022.1 - 0.4
19/03:00pm 12.8 9.1 11.5 92 0.7 SSW 22 30 12 16 1021.7 1021.6 0.4
19/02:30pm 13.1 8.5 11.0 87 1.1 SSW 26 33 14 18 1021.4 - 0.4
19/02:00pm 14.6 10.9 10.2 75 2.3 S 20 30 11 16 1021.1 - 0.2
19/01:30pm 16.0 11.5 9.9 67 3.2 S 24 35 13 19 1020.5 - 0.2
19/01:00pm 16.5 11.9 9.7 64 3.6 S 24 35 13 19 1020.3 - 0.2
19/12:30pm 17.0 12.8 11.1 68 3.2 S 24 32 13 17 1020.2 - 0.2
19/12:00pm 16.7 13.1 12.0 74 2.6 S 22 32 12 17 1020.3 1020.2 0.2
19/11:30am 16.3 14.4 13.0 81 1.8 S 15 20 8 11 1020.5 - 0.2
19/11:07am 15.8 13.9 14.3 91 0.9 S 17 24 9 13 1020.4 - 0.2
19/11:00am 15.6 14.5 14.3 92 0.7 SSE 13 20 7 11 1020.4 - 0.2
19/10:42am 15.6 14.1 14.3 92 0.7 SSW 15 19 8 10 1020.3 - 0.2
19/10:30am 15.9 13.9 13.9 88 1.1 SW 17 20 9 11 1020.2 - 0.2
19/10:00am 16.3 13.8 14.0 86 1.3 S 20 28 11 15 1019.8 - 0.2
19/09:30am 16.3 14.1 14.5 89 1.0 S 19 24 10 13 1019.5 - 0.2
19/09:22am 16.3 14.1 14.3 88 1.1 S 19 24 10 13 1019.5 - 0.2
19/09:02am 17.0 14.0 12.7 76 2.4 SSW 20 24 11 13 1019.3 - 0.0
19/09:00am 17.2 15.6 12.7 75 2.5 WSW 13 20 7 11 1019.2 1019.1 3.8
19/08:30am 17.0 15.2 12.1 73 2.7 W 13 17 7 9 1018.6 - 3.8
19/08:00am 16.6 14.8 12.2 75 2.4 WNW 13 19 7 10 1018.1 - 3.8
19/07:30am 16.4 14.8 12.9 80 2.0 WNW 13 17 7 9 1017.8 - 3.8
19/07:00am 16.8 15.0 13.3 80 2.0 W 15 17 8 9 1017.0 - 3.8
19/06:30am 16.8 14.9 13.1 79 2.1 W 15 19 8 10 1016.5 - 3.8
19/05:30am 14.4 13.5 13.8 96 0.3 SSW 11 13 6 7 1015.1 - 3.8
19/05:00am 15.3 14.9 14.2 93 0.6 WSW 9 13 5 7 1014.5 - 3.8
19/04:30am 16.2 15.1 14.4 89 1.0 W 13 15 7 8 1014.1 - 3.8
19/04:00am 16.6 16.2 14.1 85 1.4 W 9 11 5 6 1013.8 - 3.8
19/03:30am 18.0 16.5 14.1 78 2.2 WNW 15 19 8 10 1013.7 - 3.8
19/03:00am 18.4 17.9 13.9 75 2.6 W 9 15 5 8 1013.6 1013.4 3.8
19/02:30am 18.6 18.8 14.1 75 2.6 WSW 6 15 3 8 1013.4 - 3.8
19/02:00am 18.6 18.8 14.3 76 2.5 NW 6 15 3 8 1012.8 - 3.8
19/01:30am 18.6 16.8 14.5 77 2.4 NW 17 26 9 14 1012.9 - 3.8
19/01:00am 18.4 17.0 15.5 83 1.7 NW 17 20 9 11 1012.9 - 3.8
19/12:30am 18.6 17.8 16.0 85 1.6 NW 15 20 8 11 1013.1 - 3.8
19/12:00am 18.3 18.3 17.3 94 0.6 N 13 17 7 9 1013.4 1013.2 3.8
 
Date/Time
EST
Temp
°C
App
Temp
°C
Dew
Point
Rel
Hum
%
Delta-T
°C
Wind Press
QNH
hPa
Press
MSL
hPa
Rain
since 9 am
mm
Dir
 
Spd
km/h
Gust
km/h
Spd
kts
Gust
kts
18/11:30pm 18.7 18.5 16.7 88 1.2 NW 13 17 7 9 1013.5 - 3.8
18/11:00pm 18.6 19.9 18.4 99 0.1 NNW 9 13 5 7 1013.4 - 3.8
18/10:30pm 18.9 21.0 18.9 100 0.0 WNW 6 9 3 5 1013.8 - 3.8
18/10:00pm 19.0 21.1 19.0 100 0.0 NW 6 7 3 4 1013.7 - 3.4
18/09:30pm 19.0 22.3 19.0 100 0.0 CALM 0 0 0 0 1013.5 - 3.2
18/09:00pm 19.2 21.8 19.2 100 0.0 N 4 7 2 4 1013.4 1013.2 3.0
18/08:30pm 19.5 21.2 19.3 99 0.1 N 9 13 5 7 1013.3 - 2.8
18/08:00pm 19.6 20.7 18.9 96 0.4 NNW 11 15 6 8 1013.3 - 2.6
18/07:47pm 19.8 20.6 19.1 96 0.4 NNW 13 17 7 9 1013.1 - 2.4
18/07:30pm 19.9 20.8 18.4 91 0.9 NW 11 17 6 9 1013.0 - 2.2
18/07:27pm 20.0 21.5 19.0 94 0.6 NW 9 17 5 9 1013.4 - 1.8
18/07:00pm 20.1 22.0 19.8 98 0.2 NW 9 11 5 6 1012.5 - 0.6
18/06:30pm 20.4 24.2 20.2 99 0.1 CALM 0 0 0 0 1011.9 - 0.4
18/06:00pm 20.5 24.2 20.0 97 0.3 CALM 0 0 0 0 1011.7 1011.6 0.2
18/05:30pm 20.5 22.9 19.7 95 0.5 W 6 9 3 5 1011.5 - 0.2
18/05:00pm 21.5 25.1 19.8 90 1.1 CALM 0 0 0 0 1011.4 - 0.2
18/04:30pm 21.8 24.1 19.4 86 1.5 N 6 7 3 4 1011.5 - 0.2
18/04:00pm 22.5 26.2 20.0 86 1.6 CALM 0 0 0 0 1011.9 - 0.2
18/03:30pm 23.1 24.2 18.0 73 3.2 N 9 9 5 5 1012.1 - 0.0
18/03:00pm 24.2 24.3 16.5 62 4.7 N 11 15 6 8 1012.1 1012.0 0.0
18/02:30pm 24.8 24.8 16.2 58 5.3 N 11 17 6 9 1012.3 - 0.0
18/02:00pm 25.2 25.1 16.1 57 5.6 N 11 17 6 9 1012.5 - 0.0
18/01:30pm 25.2 25.1 16.9 60 5.2 NNW 13 20 7 11 1012.8 - 0.0
18/01:00pm 25.2 24.2 15.5 55 5.9 NNW 15 20 8 11 1013.0 - 0.0
18/12:30pm 25.5 24.1 15.5 54 6.1 NNW 17 26 9 14 1013.5 - 0.0
18/12:00pm 25.9 23.8 15.3 52 6.4 NW 20 32 11 17 1014.1 1013.9 0.0
18/11:30am 25.4 24.1 15.7 55 5.9 NNW 17 30 9 16 1014.5 - 0.0
18/11:00am 24.6 25.0 17.3 64 4.6 N 11 15 6 8 1015.0 - 0.0
18/10:30am 25.3 24.9 17.2 61 5.1 NNW 15 28 8 15 1015.0 - 0.0
18/10:00am 25.1 24.4 16.3 58 5.4 NNW 15 24 8 13 1015.3 - 0.0
18/09:30am 24.4 25.2 16.4 61 4.9 NNW 7 13 4 7 1015.6 - 0.0
18/09:00am 23.5 24.5 17.7 70 3.6 NW 9 13 5 7 1015.8 1015.6 5.8
18/08:30am 19.9 23.0 18.6 92 0.8 CALM 0 6 0 3 1016.1 - 5.8
18/08:00am 18.5 21.1 18.5 100 0.0 SSW 2 9 1 5 1015.8 - 5.8
18/07:48am 17.9 20.7 17.9 100 0.0 CALM 0 0 0 0 1015.8 - 5.8
18/07:30am 17.3 19.4 17.3 100 0.0 WNW 2 9 1 5 1015.7 - 5.8
18/07:26am 17.0 19.4 17.0 100 0.0 CALM 0 0 0 0 1015.6 - 5.8
18/07:00am 16.3 18.4 16.3 100 0.0 CALM 0 0 0 0 1015.5 - 5.8
18/06:30am 16.4 18.1 16.2 99 0.1 NW 2 6 1 3 1015.2 - 5.8
18/06:00am 17.9 17.8 17.9 100 0.0 NW 15 17 8 9 1015.0 1014.8 5.8
18/05:30am 16.7 19.0 16.7 100 0.0 CALM 0 0 0 0 1015.0 - 5.8
18/05:00am 17.2 19.7 17.2 100 0.0 CALM 0 0 0 0 1015.1 - 5.8
18/04:55am 17.2 19.7 17.2 100 0.0 CALM 0 0 0 0 1015.1 - 5.8
18/04:30am 17.2 19.7 17.2 100 0.0 CALM 0 0 0 0 1015.1 - 5.8
18/04:06am 17.6 19.1 17.6 100 0.0 W 6 9 3 5 1015.1 - 5.8
18/04:00am 17.6 18.5 17.6 100 0.0 W 9 11 5 6 1015.2 - 5.8
18/03:43am 17.2 19.3 17.2 100 0.0 W 2 9 1 5 1015.3 - 5.8
18/03:37am 17.6 19.1 17.6 100 0.0 W 6 9 3 5 1015.3 - 5.8
18/03:30am 17.7 19.2 17.7 100 0.0 W 6 11 3 6 1015.5 - 5.8
18/03:14am 17.3 19.8 17.3 100 0.0 CALM 0 0 0 0 1015.5 - 5.8
18/03:03am 17.6 19.1 17.6 100 0.0 W 6 9 3 5 1015.7 - 5.8
18/03:00am 17.7 19.1 17.7 100 0.0 W 7 9 4 5 1015.7 1015.5 5.8
18/02:37am 17.6 20.2 17.6 100 0.0 CALM 0 0 0 0 1016.0 - 5.8
18/02:30am 17.5 20.1 17.5 100 0.0 CALM 0 0 0 0 1016.1 - 5.8
18/02:00am 17.3 19.8 17.3 100 0.0 CALM 0 0 0 0 1016.7 - 5.8
18/01:30am 17.6 20.2 17.6 100 0.0 CALM 0 0 0 0 1017.4 - 5.8
18/01:18am 17.5 20.1 17.5 100 0.0 CALM 0 0 0 0 1017.6 - 5.8
18/01:00am 18.0 19.7 18.0 100 0.0 NW 6 7 3 4 1018.0 - 5.8
18/12:30am 17.9 20.7 17.9 100 0.0 CALM 0 0 0 0 1018.2 - 5.8
18/12:15am 18.0 20.8 18.0 100 0.0 CALM 0 0 0 0 1018.4 - 5.8
18/12:00am 18.0 20.8 18.0 100 0.0 CALM 0 0 0 0 1018.6 1018.5 5.8
 
Date/Time
EST
Temp
°C
App
Temp
°C
Dew
Point
Rel
Hum
%
Delta-T
°C
Wind Press
QNH
hPa
Press
MSL
hPa
Rain
since 9 am
mm
Dir
 
Spd
km/h
Gust
km/h
Spd
kts
Gust
kts
17/11:53pm 18.1 21.0 18.1 100 0.0 CALM 0 0 0 0 1018.8 - 5.8
17/11:30pm 18.1 21.0 18.1 100 0.0 CALM 0 0 0 0 1019.3 - 5.8
17/11:16pm 18.1 21.0 18.1 100 0.0 CALM 0 0 0 0 1019.5 - 5.8
17/11:00pm 18.0 20.8 18.0 100 0.0 CALM 0 0 0 0 1019.4 - 5.8
17/10:33pm 17.8 20.5 17.8 100 0.0 CALM 0 0 0 0 1019.8 - 5.8
17/10:31pm 17.8 20.5 17.8 100 0.0 CALM 0 0 0 0 1019.8 - 5.8
17/10:30pm 17.7 20.4 17.7 100 0.0 CALM 0 0 0 0 1019.8 - 5.8
17/10:00pm 17.6 20.2 17.6 100 0.0 CALM 0 0 0 0 1020.1 - 5.8
17/09:30pm 17.8 20.5 17.8 100 0.0 CALM 0 0 0 0 1020.2 - 5.8
17/09:00pm 17.6 19.9 17.6 100 0.0 ESE 2 7 1 4 1020.4 1020.3 5.8
17/08:30pm 17.8 20.5 17.8 100 0.0 CALM 0 0 0 0 1020.4 - 5.8
17/08:23pm 17.9 20.7 17.9 100 0.0 CALM 0 6 0 3 1020.6 - 5.8
17/08:00pm 18.1 19.6 18.1 100 0.0 NW 7 9 4 5 1020.6 - 5.8
17/07:30pm 18.0 20.8 18.0 100 0.0 CALM 0 9 0 5 1020.7 - 5.8
17/07:17pm 17.9 20.7 17.9 100 0.0 CALM 0 0 0 0 1020.6 - 5.8
17/07:00pm 18.0 20.8 18.0 100 0.0 CALM 0 0 0 0 1020.4 - 5.8
17/06:30pm 18.3 21.2 18.3 100 0.0 CALM 0 0 0 0 1020.1 - 5.8
17/06:06pm 18.4 21.4 18.4 100 0.0 CALM 0 0 0 0 1020.0 - 5.8
17/06:00pm 18.4 21.4 18.4 100 0.0 CALM 0 6 0 3 1019.9 1019.8 5.8
17/05:58pm 18.5 21.1 18.5 100 0.0 N 2 7 1 4 1020.0 - 5.8
17/05:30pm 18.7 19.7 18.7 100 0.0 NNE 11 13 6 7 1019.9 - 5.8
17/05:06pm 18.9 20.4 18.9 100 0.0 NNE 9 13 5 7 1020.3 - 5.6
17/05:00pm 19.0 20.9 19.0 100 0.0 N 7 9 4 5 1020.4 - 5.4
17/04:58pm 19.0 20.9 19.0 100 0.0 N 7 9 4 5 1020.4 - 5.4
17/04:54pm 19.0 20.9 19.0 100 0.0 N 7 9 4 5 1020.5 - 5.2
17/04:43pm 19.0 21.1 19.0 100 0.0 N 6 7 3 4 1020.7 - 5.0
17/04:35pm 19.0 21.1 19.0 100 0.0 NNW 6 7 3 4 1020.6 - 4.8
17/04:30pm 19.0 21.1 19.0 100 0.0 NNW 6 7 3 4 1020.6 - 4.8
17/04:20pm 19.1 21.1 19.1 100 0.0 NW 7 9 4 5 1020.6 - 4.6
17/04:02pm 19.2 21.8 19.2 100 0.0 N 4 7 2 4 1020.6 - 4.4
17/04:00pm 19.1 21.3 19.1 100 0.0 N 6 9 3 5 1020.6 - 4.4
17/03:54pm 19.2 21.4 19.2 100 0.0 N 6 9 3 5 1020.7 - 4.2
17/03:30pm 19.1 22.0 19.1 100 0.0 N 2 9 1 5 1020.7 - 4.0
17/03:00pm 19.1 22.0 19.1 100 0.0 N 2 7 1 4 1020.9 1020.8 3.6
17/02:30pm 19.1 21.3 19.1 100 0.0 N 6 7 3 4 1021.2 - 3.4
17/02:14pm 19.0 20.9 19.0 100 0.0 NNE 7 11 4 6 1021.2 - 3.0
17/02:00pm 19.0 20.9 19.0 100 0.0 NE 7 9 4 5 1021.4 - 2.8
17/01:30pm 18.9 20.4 18.9 100 0.0 NE 9 13 5 7 1021.6 - 2.8
17/01:00pm 18.6 21.7 18.6 100 0.0 CALM 0 0 0 0 1022.1 - 2.8
17/12:30pm 18.5 20.2 18.5 100 0.0 NE 7 11 4 6 1022.7 - 2.8
17/12:11pm 18.3 19.5 18.3 100 0.0 NE 9 11 5 6 1023.1 - 2.6
17/12:00pm 18.2 20.3 18.2 100 0.0 ENE 4 13 2 7 1023.4 1023.2 2.4
17/11:30am 18.2 20.7 18.2 100 0.0 ESE 2 6 1 3 1023.9 - 1.8
17/11:00am 17.8 20.5 17.8 100 0.0 CALM 0 0 0 0 1024.5 - 1.0
17/10:30am 17.9 19.3 17.9 100 0.0 S 7 7 4 4 1024.6 - 0.6
17/10:00am 17.8 20.5 17.8 100 0.0 CALM 0 0 0 0 1024.8 - 0.4
17/09:30am 17.9 19.5 17.9 100 0.0 SSE 6 7 3 4 1025.0 - 0.2
17/09:00am 17.7 20.4 17.7 100 0.0 CALM 0 0 0 0 1025.1 1025.0 2.8
17/08:30am 17.7 20.4 17.7 100 0.0 CALM 0 0 0 0 1025.0 - 2.4
17/08:07am 17.6 19.9 17.6 100 0.0 S 2 11 1 6 1024.8 - 2.4
17/08:00am 17.6 20.2 17.6 100 0.0 CALM 0 0 0 0 1024.7 - 2.4
17/07:30am 17.5 18.8 17.5 100 0.0 SW 7 9 4 5 1024.7 - 2.4
17/07:12am 17.4 18.6 17.4 100 0.0 SW 7 9 4 5 1024.4 - 2.4
17/06:58am 17.4 18.6 17.4 100 0.0 SW 7 7 4 4 1024.1 - 2.4
17/06:30am 17.4 19.2 17.4 100 0.0 SSW 4 7 2 4 1023.8 - 2.4
17/06:00am 17.4 19.2 17.4 100 0.0 S 4 7 2 4 - 1023.8 -
17/05:30am 17.4 18.6 17.4 100 0.0 SSW 7 9 4 5 1024.1 - 2.0

Other Formats:

Comma delimited format used in spreadsheet applications
http://www.bom.gov.au/fwo/IDN60801/IDN60801.94750.axf

JavaScript Object Notation format (JSON) in row-major order
http://www.bom.gov.au/fwo/IDN60801/IDN60801.94750.json